sensor_id;sensor_type;location;lat;lon;timestamp;P1;durP1;ratioP1;P2;durP2;ratioP2
64903;SDS011;51401;48.882;12.598;2023-07-20T00:00:11;3.60;;;2.50;;
64903;SDS011;51401;48.882;12.598;2023-07-20T00:02:39;3.40;;;2.67;;
64903;SDS011;51401;48.882;12.598;2023-07-20T00:05:04;4.05;;;2.55;;
64903;SDS011;51401;48.882;12.598;2023-07-20T00:07:30;2.88;;;2.50;;
64903;SDS011;51401;48.882;12.598;2023-07-20T00:09:55;3.43;;;2.70;;
64903;SDS011;51401;48.882;12.598;2023-07-20T00:12:20;3.38;;;2.40;;
64903;SDS011;51401;48.882;12.598;2023-07-20T00:14:46;3.58;;;2.67;;
64903;SDS011;51401;48.882;12.598;2023-07-20T00:17:11;4.37;;;3.13;;
64903;SDS011;51401;48.882;12.598;2023-07-20T00:19:36;3.17;;;2.67;;
64903;SDS011;51401;48.882;12.598;2023-07-20T00:22:01;3.58;;;2.88;;
64903;SDS011;51401;48.882;12.598;2023-07-20T00:24:29;3.38;;;2.60;;
64903;SDS011;51401;48.882;12.598;2023-07-20T00:26:55;3.67;;;2.60;;
64903;SDS011;51401;48.882;12.598;2023-07-20T00:29:20;2.87;;;2.30;;
64903;SDS011;51401;48.882;12.598;2023-07-20T00:31:45;6.63;;;2.67;;
64903;SDS011;51401;48.882;12.598;2023-07-20T00:34:11;3.72;;;2.80;;
64903;SDS011;51401;48.882;12.598;2023-07-20T00:36:36;5.35;;;2.70;;
64903;SDS011;51401;48.882;12.598;2023-07-20T00:39:02;5.25;;;2.58;;
64903;SDS011;51401;48.882;12.598;2023-07-20T00:41:28;3.30;;;2.60;;
64903;SDS011;51401;48.882;12.598;2023-07-20T00:43:54;5.45;;;2.67;;
64903;SDS011;51401;48.882;12.598;2023-07-20T00:46:20;3.35;;;2.60;;
64903;SDS011;51401;48.882;12.598;2023-07-20T00:48:48;5.03;;;2.72;;
64903;SDS011;51401;48.882;12.598;2023-07-20T00:51:14;3.28;;;2.83;;
64903;SDS011;51401;48.882;12.598;2023-07-20T00:53:40;3.15;;;2.80;;
64903;SDS011;51401;48.882;12.598;2023-07-20T00:56:05;4.63;;;3.00;;
64903;SDS011;51401;48.882;12.598;2023-07-20T00:58:33;4.53;;;3.05;;
64903;SDS011;51401;48.882;12.598;2023-07-20T01:00:58;3.95;;;2.78;;
64903;SDS011;51401;48.882;12.598;2023-07-20T01:03:23;4.63;;;2.90;;
64903;SDS011;51401;48.882;12.598;2023-07-20T01:14:13;3.33;;;2.40;;
64903;SDS011;51401;48.882;12.598;2023-07-20T01:16:39;2.72;;;2.53;;
64903;SDS011;51401;48.882;12.598;2023-07-20T01:19:04;4.28;;;2.90;;
64903;SDS011;51401;48.882;12.598;2023-07-20T01:21:34;3.78;;;2.70;;
64903;SDS011;51401;48.882;12.598;2023-07-20T01:26:57;4.03;;;3.10;;
64903;SDS011;51401;48.882;12.598;2023-07-20T01:32:41;3.72;;;2.95;;
64903;SDS011;51401;48.882;12.598;2023-07-20T01:35:07;3.60;;;2.83;;
64903;SDS011;51401;48.882;12.598;2023-07-20T01:37:35;3.95;;;2.60;;
64903;SDS011;51401;48.882;12.598;2023-07-20T01:40:02;4.15;;;2.75;;
64903;SDS011;51401;48.882;12.598;2023-07-20T01:42:28;3.55;;;2.60;;
64903;SDS011;51401;48.882;12.598;2023-07-20T01:44:54;5.30;;;3.30;;
64903;SDS011;51401;48.882;12.598;2023-07-20T01:47:19;5.03;;;3.05;;
64903;SDS011;51401;48.882;12.598;2023-07-20T01:49:45;4.88;;;2.60;;
64903;SDS011;51401;48.882;12.598;2023-07-20T01:52:10;5.38;;;2.80;;
64903;SDS011;51401;48.882;12.598;2023-07-20T01:54:36;2.80;;;2.53;;
64903;SDS011;51401;48.882;12.598;2023-07-20T01:57:01;4.43;;;3.28;;
64903;SDS011;51401;48.882;12.598;2023-07-20T01:59:26;4.05;;;3.55;;
64903;SDS011;51401;48.882;12.598;2023-07-20T02:01:52;4.22;;;2.58;;
64903;SDS011;51401;48.882;12.598;2023-07-20T02:04:17;5.47;;;2.85;;
64903;SDS011;51401;48.882;12.598;2023-07-20T02:06:42;4.05;;;2.80;;
64903;SDS011;51401;48.882;12.598;2023-07-20T02:09:08;3.80;;;2.77;;
64903;SDS011;51401;48.882;12.598;2023-07-20T02:11:33;3.00;;;2.70;;
64903;SDS011;51401;48.882;12.598;2023-07-20T02:13:58;3.50;;;2.93;;
64903;SDS011;51401;48.882;12.598;2023-07-20T02:16:24;4.72;;;3.50;;
64903;SDS011;51401;48.882;12.598;2023-07-20T02:18:49;4.05;;;3.22;;
64903;SDS011;51401;48.882;12.598;2023-07-20T02:21:14;4.00;;;2.92;;
64903;SDS011;51401;48.882;12.598;2023-07-20T02:23:40;3.92;;;2.97;;
64903;SDS011;51401;48.882;12.598;2023-07-20T02:26:05;3.28;;;2.90;;
64903;SDS011;51401;48.882;12.598;2023-07-20T02:28:30;4.67;;;2.87;;
64903;SDS011;51401;48.882;12.598;2023-07-20T02:30:55;5.75;;;3.50;;
64903;SDS011;51401;48.882;12.598;2023-07-20T02:33:21;5.40;;;3.27;;
64903;SDS011;51401;48.882;12.598;2023-07-20T02:35:46;4.68;;;2.70;;
64903;SDS011;51401;48.882;12.598;2023-07-20T02:38:12;4.00;;;2.80;;
64903;SDS011;51401;48.882;12.598;2023-07-20T02:40:37;4.33;;;3.17;;
64903;SDS011;51401;48.882;12.598;2023-07-20T02:43:02;5.38;;;3.08;;
64903;SDS011;51401;48.882;12.598;2023-07-20T02:45:28;4.57;;;3.03;;
64903;SDS011;51401;48.882;12.598;2023-07-20T02:47:53;4.13;;;2.67;;
64903;SDS011;51401;48.882;12.598;2023-07-20T02:50:18;4.23;;;2.93;;
64903;SDS011;51401;48.882;12.598;2023-07-20T02:52:43;3.65;;;3.10;;
64903;SDS011;51401;48.882;12.598;2023-07-20T02:55:09;6.78;;;2.95;;
64903;SDS011;51401;48.882;12.598;2023-07-20T02:57:34;4.38;;;3.00;;
64903;SDS011;51401;48.882;12.598;2023-07-20T03:00:00;3.40;;;3.10;;
64903;SDS011;51401;48.882;12.598;2023-07-20T03:02:26;4.63;;;3.25;;
64903;SDS011;51401;48.882;12.598;2023-07-20T03:04:51;4.15;;;3.05;;
64903;SDS011;51401;48.882;12.598;2023-07-20T03:07:16;3.72;;;3.00;;
64903;SDS011;51401;48.882;12.598;2023-07-20T03:09:42;6.07;;;3.50;;
64903;SDS011;51401;48.882;12.598;2023-07-20T03:12:08;3.38;;;3.08;;
64903;SDS011;51401;48.882;12.598;2023-07-20T03:14:34;4.78;;;3.15;;
64903;SDS011;51401;48.882;12.598;2023-07-20T03:16:59;5.80;;;3.20;;
64903;SDS011;51401;48.882;12.598;2023-07-20T03:19:24;4.03;;;3.63;;
64903;SDS011;51401;48.882;12.598;2023-07-20T03:21:50;4.03;;;3.17;;
64903;SDS011;51401;48.882;12.598;2023-07-20T03:24:15;4.18;;;3.50;;
64903;SDS011;51401;48.882;12.598;2023-07-20T03:26:41;4.75;;;3.30;;
64903;SDS011;51401;48.882;12.598;2023-07-20T03:29:06;5.72;;;3.25;;
64903;SDS011;51401;48.882;12.598;2023-07-20T03:31:32;4.82;;;3.50;;
64903;SDS011;51401;48.882;12.598;2023-07-20T03:33:57;5.03;;;3.15;;
64903;SDS011;51401;48.882;12.598;2023-07-20T03:36:22;5.00;;;3.50;;
64903;SDS011;51401;48.882;12.598;2023-07-20T03:38:47;4.47;;;3.40;;
64903;SDS011;51401;48.882;12.598;2023-07-20T03:41:13;6.18;;;3.50;;
64903;SDS011;51401;48.882;12.598;2023-07-20T03:43:40;4.43;;;3.25;;
64903;SDS011;51401;48.882;12.598;2023-07-20T03:46:06;4.25;;;3.40;;
64903;SDS011;51401;48.882;12.598;2023-07-20T03:48:32;4.20;;;3.22;;
64903;SDS011;51401;48.882;12.598;2023-07-20T03:50:58;3.65;;;3.10;;
64903;SDS011;51401;48.882;12.598;2023-07-20T03:53:25;5.70;;;3.60;;
64903;SDS011;51401;48.882;12.598;2023-07-20T03:55:51;4.28;;;3.10;;
64903;SDS011;51401;48.882;12.598;2023-07-20T03:58:17;4.07;;;3.58;;
64903;SDS011;51401;48.882;12.598;2023-07-20T04:00:47;3.38;;;2.63;;
64903;SDS011;51401;48.882;12.598;2023-07-20T04:03:15;5.20;;;2.78;;
64903;SDS011;51401;48.882;12.598;2023-07-20T04:05:40;5.90;;;2.60;;
64903;SDS011;51401;48.882;12.598;2023-07-20T04:08:07;4.75;;;3.45;;
64903;SDS011;51401;48.882;12.598;2023-07-20T04:10:32;3.65;;;2.83;;
64903;SDS011;51401;48.882;12.598;2023-07-20T04:12:58;3.42;;;2.90;;
64903;SDS011;51401;48.882;12.598;2023-07-20T04:15:23;6.23;;;3.73;;
64903;SDS011;51401;48.882;12.598;2023-07-20T04:17:48;4.80;;;3.30;;
64903;SDS011;51401;48.882;12.598;2023-07-20T04:20:14;4.78;;;3.42;;
64903;SDS011;51401;48.882;12.598;2023-07-20T04:22:39;4.20;;;3.10;;
64903;SDS011;51401;48.882;12.598;2023-07-20T04:25:04;4.45;;;3.40;;
64903;SDS011;51401;48.882;12.598;2023-07-20T04:27:30;4.43;;;3.20;;
64903;SDS011;51401;48.882;12.598;2023-07-20T04:29:57;5.32;;;3.35;;
64903;SDS011;51401;48.882;12.598;2023-07-20T04:32:24;5.35;;;3.58;;
64903;SDS011;51401;48.882;12.598;2023-07-20T04:34:50;4.68;;;3.40;;
64903;SDS011;51401;48.882;12.598;2023-07-20T04:37:15;8.98;;;3.25;;
64903;SDS011;51401;48.882;12.598;2023-07-20T04:39:41;6.18;;;3.42;;
64903;SDS011;51401;48.882;12.598;2023-07-20T04:42:06;3.83;;;2.95;;
64903;SDS011;51401;48.882;12.598;2023-07-20T04:44:31;4.63;;;3.00;;
64903;SDS011;51401;48.882;12.598;2023-07-20T04:46:57;4.97;;;3.20;;
64903;SDS011;51401;48.882;12.598;2023-07-20T04:49:22;5.63;;;3.45;;
64903;SDS011;51401;48.882;12.598;2023-07-20T04:51:47;4.35;;;3.38;;
64903;SDS011;51401;48.882;12.598;2023-07-20T04:54:12;4.13;;;3.17;;
64903;SDS011;51401;48.882;12.598;2023-07-20T04:56:38;3.65;;;3.35;;
64903;SDS011;51401;48.882;12.598;2023-07-20T04:59:04;4.07;;;3.33;;
64903;SDS011;51401;48.882;12.598;2023-07-20T05:01:29;4.57;;;3.25;;
64903;SDS011;51401;48.882;12.598;2023-07-20T05:03:54;5.90;;;3.40;;
64903;SDS011;51401;48.882;12.598;2023-07-20T05:06:20;3.97;;;3.20;;
64903;SDS011;51401;48.882;12.598;2023-07-20T05:08:45;4.95;;;3.15;;
64903;SDS011;51401;48.882;12.598;2023-07-20T05:11:11;5.50;;;3.42;;
64903;SDS011;51401;48.882;12.598;2023-07-20T05:13:37;4.93;;;3.42;;
64903;SDS011;51401;48.882;12.598;2023-07-20T05:16:03;3.47;;;3.17;;
64903;SDS011;51401;48.882;12.598;2023-07-20T05:18:28;3.83;;;2.95;;
64903;SDS011;51401;48.882;12.598;2023-07-20T05:20:54;3.83;;;3.30;;
64903;SDS011;51401;48.882;12.598;2023-07-20T05:23:20;4.40;;;3.42;;
64903;SDS011;51401;48.882;12.598;2023-07-20T05:25:46;4.97;;;3.35;;
64903;SDS011;51401;48.882;12.598;2023-07-20T05:28:11;4.85;;;3.03;;
64903;SDS011;51401;48.882;12.598;2023-07-20T05:30:37;4.88;;;3.17;;
64903;SDS011;51401;48.882;12.598;2023-07-20T05:33:02;4.70;;;3.17;;
64903;SDS011;51401;48.882;12.598;2023-07-20T05:35:27;4.05;;;3.60;;
64903;SDS011;51401;48.882;12.598;2023-07-20T05:37:53;3.35;;;2.90;;
64903;SDS011;51401;48.882;12.598;2023-07-20T05:40:18;6.78;;;3.58;;
64903;SDS011;51401;48.882;12.598;2023-07-20T05:42:45;6.05;;;3.20;;
64903;SDS011;51401;48.882;12.598;2023-07-20T05:45:12;8.80;;;3.60;;
64903;SDS011;51401;48.882;12.598;2023-07-20T05:47:37;5.43;;;3.20;;
64903;SDS011;51401;48.882;12.598;2023-07-20T05:50:03;3.97;;;3.40;;
64903;SDS011;51401;48.882;12.598;2023-07-20T05:52:29;8.23;;;4.47;;
64903;SDS011;51401;48.882;12.598;2023-07-20T05:54:54;10.18;;;3.80;;
64903;SDS011;51401;48.882;12.598;2023-07-20T05:57:20;7.85;;;3.58;;
64903;SDS011;51401;48.882;12.598;2023-07-20T05:59:45;6.57;;;3.08;;
64903;SDS011;51401;48.882;12.598;2023-07-20T06:02:11;7.78;;;3.22;;
64903;SDS011;51401;48.882;12.598;2023-07-20T06:04:36;5.00;;;3.00;;
64903;SDS011;51401;48.882;12.598;2023-07-20T06:07:01;3.38;;;3.08;;
64903;SDS011;51401;48.882;12.598;2023-07-20T06:09:27;3.05;;;2.75;;
64903;SDS011;51401;48.882;12.598;2023-07-20T06:11:53;3.35;;;2.85;;
64903;SDS011;51401;48.882;12.598;2023-07-20T06:14:18;5.15;;;3.20;;
64903;SDS011;51401;48.882;12.598;2023-07-20T06:16:44;4.72;;;3.05;;
64903;SDS011;51401;48.882;12.598;2023-07-20T06:19:09;3.60;;;2.53;;
64903;SDS011;51401;48.882;12.598;2023-07-20T06:21:37;4.05;;;2.67;;
64903;SDS011;51401;48.882;12.598;2023-07-20T06:24:02;3.65;;;2.70;;
64903;SDS011;51401;48.882;12.598;2023-07-20T06:26:28;3.53;;;2.58;;
64903;SDS011;51401;48.882;12.598;2023-07-20T06:28:54;3.85;;;2.58;;
64903;SDS011;51401;48.882;12.598;2023-07-20T06:31:20;3.05;;;2.35;;
64903;SDS011;51401;48.882;12.598;2023-07-20T06:33:45;3.65;;;2.42;;
64903;SDS011;51401;48.882;12.598;2023-07-20T06:36:11;2.95;;;2.50;;
64903;SDS011;51401;48.882;12.598;2023-07-20T06:38:36;4.28;;;2.75;;
64903;SDS011;51401;48.882;12.598;2023-07-20T06:41:02;4.63;;;2.92;;
64903;SDS011;51401;48.882;12.598;2023-07-20T06:43:27;6.32;;;2.60;;
64903;SDS011;51401;48.882;12.598;2023-07-20T06:45:52;4.07;;;2.67;;
64903;SDS011;51401;48.882;12.598;2023-07-20T06:48:18;3.20;;;2.38;;
64903;SDS011;51401;48.882;12.598;2023-07-20T06:50:44;3.15;;;2.65;;
64903;SDS011;51401;48.882;12.598;2023-07-20T06:53:09;5.03;;;2.90;;
64903;SDS011;51401;48.882;12.598;2023-07-20T06:55:34;3.73;;;2.80;;
64903;SDS011;51401;48.882;12.598;2023-07-20T06:57:59;5.33;;;2.90;;
64903;SDS011;51401;48.882;12.598;2023-07-20T07:00:25;3.93;;;3.20;;
64903;SDS011;51401;48.882;12.598;2023-07-20T07:02:50;3.95;;;3.00;;
64903;SDS011;51401;48.882;12.598;2023-07-20T07:05:15;5.80;;;3.25;;
64903;SDS011;51401;48.882;12.598;2023-07-20T07:07:41;3.88;;;2.72;;
64903;SDS011;51401;48.882;12.598;2023-07-20T07:10:07;3.78;;;2.88;;
64903;SDS011;51401;48.882;12.598;2023-07-20T07:12:33;3.97;;;3.28;;
64903;SDS011;51401;48.882;12.598;2023-07-20T07:14:59;4.28;;;3.05;;
64903;SDS011;51401;48.882;12.598;2023-07-20T07:17:24;5.28;;;3.53;;
64903;SDS011;51401;48.882;12.598;2023-07-20T07:19:51;3.60;;;3.30;;
64903;SDS011;51401;48.882;12.598;2023-07-20T07:22:19;5.05;;;3.30;;
64903;SDS011;51401;48.882;12.598;2023-07-20T07:24:46;3.97;;;3.13;;
64903;SDS011;51401;48.882;12.598;2023-07-20T07:27:11;4.80;;;3.30;;
64903;SDS011;51401;48.882;12.598;2023-07-20T07:29:37;3.95;;;3.13;;
64903;SDS011;51401;48.882;12.598;2023-07-20T07:32:02;3.80;;;3.40;;
64903;SDS011;51401;48.882;12.598;2023-07-20T07:34:28;4.80;;;3.35;;
64903;SDS011;51401;48.882;12.598;2023-07-20T07:36:53;4.07;;;3.42;;
64903;SDS011;51401;48.882;12.598;2023-07-20T07:39:19;4.68;;;3.45;;
64903;SDS011;51401;48.882;12.598;2023-07-20T07:41:44;5.00;;;3.38;;
64903;SDS011;51401;48.882;12.598;2023-07-20T07:44:10;3.75;;;3.00;;
64903;SDS011;51401;48.882;12.598;2023-07-20T07:46:35;5.38;;;3.50;;
64903;SDS011;51401;48.882;12.598;2023-07-20T07:49:00;4.77;;;3.60;;
64903;SDS011;51401;48.882;12.598;2023-07-20T07:51:25;3.40;;;3.10;;
64903;SDS011;51401;48.882;12.598;2023-07-20T07:53:52;6.10;;;3.42;;
64903;SDS011;51401;48.882;12.598;2023-07-20T07:56:17;5.32;;;3.28;;
64903;SDS011;51401;48.882;12.598;2023-07-20T07:58:46;5.97;;;3.63;;
64903;SDS011;51401;48.882;12.598;2023-07-20T08:01:11;3.33;;;3.03;;
64903;SDS011;51401;48.882;12.598;2023-07-20T08:03:37;3.47;;;3.15;;
64903;SDS011;51401;48.882;12.598;2023-07-20T08:06:02;3.22;;;2.83;;
64903;SDS011;51401;48.882;12.598;2023-07-20T08:08:29;5.18;;;3.20;;
64903;SDS011;51401;48.882;12.598;2023-07-20T08:10:55;7.72;;;3.50;;
64903;SDS011;51401;48.882;12.598;2023-07-20T08:13:20;4.70;;;3.20;;
64903;SDS011;51401;48.882;12.598;2023-07-20T08:15:48;5.93;;;2.97;;
64903;SDS011;51401;48.882;12.598;2023-07-20T08:18:15;3.90;;;2.42;;
64903;SDS011;51401;48.882;12.598;2023-07-20T08:20:43;5.00;;;3.00;;
64903;SDS011;51401;48.882;12.598;2023-07-20T08:23:09;3.80;;;2.63;;
64903;SDS011;51401;48.882;12.598;2023-07-20T08:25:36;3.97;;;2.80;;
64903;SDS011;51401;48.882;12.598;2023-07-20T08:28:04;4.40;;;2.83;;
64903;SDS011;51401;48.882;12.598;2023-07-20T08:30:38;3.13;;;2.80;;
64903;SDS011;51401;48.882;12.598;2023-07-20T08:33:04;4.10;;;2.75;;
64903;SDS011;51401;48.882;12.598;2023-07-20T08:35:30;3.53;;;2.83;;
64903;SDS011;51401;48.882;12.598;2023-07-20T08:37:55;3.03;;;2.53;;
64903;SDS011;51401;48.882;12.598;2023-07-20T08:40:20;4.20;;;2.60;;
64903;SDS011;51401;48.882;12.598;2023-07-20T08:42:46;3.75;;;2.80;;
64903;SDS011;51401;48.882;12.598;2023-07-20T08:45:11;3.72;;;3.10;;
64903;SDS011;51401;48.882;12.598;2023-07-20T08:47:38;4.88;;;2.53;;
64903;SDS011;51401;48.882;12.598;2023-07-20T08:50:06;3.47;;;2.90;;
64903;SDS011;51401;48.882;12.598;2023-07-20T08:52:33;2.97;;;2.70;;
64903;SDS011;51401;48.882;12.598;2023-07-20T08:54:59;3.00;;;2.38;;
64903;SDS011;51401;48.882;12.598;2023-07-20T08:57:28;2.92;;;2.35;;
64903;SDS011;51401;48.882;12.598;2023-07-20T08:59:53;2.92;;;2.30;;
64903;SDS011;51401;48.882;12.598;2023-07-20T09:02:19;3.25;;;2.72;;
64903;SDS011;51401;48.882;12.598;2023-07-20T09:04:50;3.50;;;2.40;;
64903;SDS011;51401;48.882;12.598;2023-07-20T09:07:15;3.45;;;2.30;;
64903;SDS011;51401;48.882;12.598;2023-07-20T09:09:41;2.85;;;2.40;;
64903;SDS011;51401;48.882;12.598;2023-07-20T09:12:16;3.78;;;2.75;;
64903;SDS011;51401;48.882;12.598;2023-07-20T09:14:44;3.20;;;2.47;;
64903;SDS011;51401;48.882;12.598;2023-07-20T09:17:13;3.17;;;2.25;;
64903;SDS011;51401;48.882;12.598;2023-07-20T09:19:45;4.75;;;2.35;;
64903;SDS011;51401;48.882;12.598;2023-07-20T09:22:11;3.58;;;2.28;;
64903;SDS011;51401;48.882;12.598;2023-07-20T09:24:36;3.10;;;2.30;;
64903;SDS011;51401;48.882;12.598;2023-07-20T09:27:02;3.38;;;2.55;;
64903;SDS011;51401;48.882;12.598;2023-07-20T09:29:30;3.45;;;2.42;;
64903;SDS011;51401;48.882;12.598;2023-07-20T09:31:59;3.00;;;2.58;;
64903;SDS011;51401;48.882;12.598;2023-07-20T09:36:51;2.83;;;2.30;;
64903;SDS011;51401;48.882;12.598;2023-07-20T09:39:17;2.30;;;2.10;;
64903;SDS011;51401;48.882;12.598;2023-07-20T09:41:42;2.75;;;2.20;;
64903;SDS011;51401;48.882;12.598;2023-07-20T09:44:07;4.88;;;3.00;;
64903;SDS011;51401;48.882;12.598;2023-07-20T09:46:42;3.10;;;2.42;;
64903;SDS011;51401;48.882;12.598;2023-07-20T09:49:11;3.72;;;2.75;;
64903;SDS011;51401;48.882;12.598;2023-07-20T09:51:37;3.72;;;2.72;;
64903;SDS011;51401;48.882;12.598;2023-07-20T09:54:02;3.33;;;2.90;;
64903;SDS011;51401;48.882;12.598;2023-07-20T09:56:29;2.72;;;2.50;;
64903;SDS011;51401;48.882;12.598;2023-07-20T09:58:55;2.22;;;2.03;;
64903;SDS011;51401;48.882;12.598;2023-07-20T10:01:21;3.13;;;2.70;;
64903;SDS011;51401;48.882;12.598;2023-07-20T10:03:50;2.45;;;2.25;;
64903;SDS011;51401;48.882;12.598;2023-07-20T10:06:20;2.53;;;2.25;;
64903;SDS011;51401;48.882;12.598;2023-07-20T10:08:49;3.13;;;2.75;;
64903;SDS011;51401;48.882;12.598;2023-07-20T10:11:18;4.07;;;2.47;;
64903;SDS011;51401;48.882;12.598;2023-07-20T10:13:46;3.72;;;2.85;;
64903;SDS011;51401;48.882;12.598;2023-07-20T10:16:22;4.78;;;3.35;;
64903;SDS011;51401;48.882;12.598;2023-07-20T10:18:59;3.75;;;2.75;;
64903;SDS011;51401;48.882;12.598;2023-07-20T10:21:30;2.50;;;2.10;;
64903;SDS011;51401;48.882;12.598;2023-07-20T10:23:56;2.85;;;1.90;;
64903;SDS011;51401;48.882;12.598;2023-07-20T10:26:22;4.28;;;1.80;;
64903;SDS011;51401;48.882;12.598;2023-07-20T10:28:47;2.30;;;1.80;;
64903;SDS011;51401;48.882;12.598;2023-07-20T10:31:13;2.22;;;2.03;;
64903;SDS011;51401;48.882;12.598;2023-07-20T10:33:40;7.88;;;4.43;;
64903;SDS011;51401;48.882;12.598;2023-07-20T10:36:06;3.30;;;2.63;;
64903;SDS011;51401;48.882;12.598;2023-07-20T10:41:18;3.28;;;2.13;;
64903;SDS011;51401;48.882;12.598;2023-07-20T10:43:46;3.28;;;1.85;;
64903;SDS011;51401;48.882;12.598;2023-07-20T10:46:12;2.45;;;1.65;;
64903;SDS011;51401;48.882;12.598;2023-07-20T10:51:26;2.25;;;1.83;;
64903;SDS011;51401;48.882;12.598;2023-07-20T10:53:51;2.08;;;1.48;;
64903;SDS011;51401;48.882;12.598;2023-07-20T10:56:22;4.28;;;1.80;;
64903;SDS011;51401;48.882;12.598;2023-07-20T10:58:48;2.45;;;1.92;;
64903;SDS011;51401;48.882;12.598;2023-07-20T11:01:14;3.50;;;3.10;;
64903;SDS011;51401;48.882;12.598;2023-07-20T11:03:41;2.60;;;2.20;;
64903;SDS011;51401;48.882;12.598;2023-07-20T11:09:09;3.55;;;2.20;;
64903;SDS011;51401;48.882;12.598;2023-07-20T11:11:39;4.70;;;4.30;;
64903;SDS011;51401;48.882;12.598;2023-07-20T11:14:07;5.50;;;4.97;;
64903;SDS011;51401;48.882;12.598;2023-07-20T11:16:45;3.97;;;3.43;;
64903;SDS011;51401;48.882;12.598;2023-07-20T11:19:25;5.18;;;3.70;;
64903;SDS011;51401;48.882;12.598;2023-07-20T11:21:54;4.05;;;3.65;;
64903;SDS011;51401;48.882;12.598;2023-07-20T11:24:21;3.47;;;2.30;;
64903;SDS011;51401;48.882;12.598;2023-07-20T11:29:13;3.20;;;1.70;;
64903;SDS011;51401;48.882;12.598;2023-07-20T11:31:39;2.15;;;1.75;;
64903;SDS011;51401;48.882;12.598;2023-07-20T11:34:07;2.75;;;1.50;;
64903;SDS011;51401;48.882;12.598;2023-07-20T11:36:35;2.22;;;1.98;;
64903;SDS011;51401;48.882;12.598;2023-07-20T11:39:00;2.70;;;1.90;;
64903;SDS011;51401;48.882;12.598;2023-07-20T11:41:26;2.67;;;2.13;;
64903;SDS011;51401;48.882;12.598;2023-07-20T11:43:52;2.30;;;1.77;;
64903;SDS011;51401;48.882;12.598;2023-07-20T11:46:18;2.58;;;1.88;;
64903;SDS011;51401;48.882;12.598;2023-07-20T11:48:43;2.50;;;1.90;;
64903;SDS011;51401;48.882;12.598;2023-07-20T11:51:16;2.85;;;1.83;;
64903;SDS011;51401;48.882;12.598;2023-07-20T11:53:42;4.45;;;2.33;;
64903;SDS011;51401;48.882;12.598;2023-07-20T11:56:11;2.20;;;2.00;;
64903;SDS011;51401;48.882;12.598;2023-07-20T11:58:36;3.42;;;1.83;;
64903;SDS011;51401;48.882;12.598;2023-07-20T12:01:06;2.97;;;2.05;;
64903;SDS011;51401;48.882;12.598;2023-07-20T12:03:32;3.70;;;1.83;;
64903;SDS011;51401;48.882;12.598;2023-07-20T12:06:05;2.45;;;1.80;;
64903;SDS011;51401;48.882;12.598;2023-07-20T12:08:31;3.45;;;1.58;;
64903;SDS011;51401;48.882;12.598;2023-07-20T12:10:57;1.80;;;1.50;;
64903;SDS011;51401;48.882;12.598;2023-07-20T12:13:23;2.45;;;1.88;;
64903;SDS011;51401;48.882;12.598;2023-07-20T12:15:52;2.40;;;1.73;;
64903;SDS011;51401;48.882;12.598;2023-07-20T12:18:22;1.87;;;1.60;;
64903;SDS011;51401;48.882;12.598;2023-07-20T12:20:47;2.45;;;1.55;;
64903;SDS011;51401;48.882;12.598;2023-07-20T12:23:13;2.77;;;1.53;;
64903;SDS011;51401;48.882;12.598;2023-07-20T12:25:45;2.95;;;1.40;;
64903;SDS011;51401;48.882;12.598;2023-07-20T12:28:12;2.83;;;1.70;;
64903;SDS011;51401;48.882;12.598;2023-07-20T12:30:39;4.25;;;1.50;;
64903;SDS011;51401;48.882;12.598;2023-07-20T12:33:05;3.85;;;2.10;;
64903;SDS011;51401;48.882;12.598;2023-07-20T12:35:31;2.83;;;1.90;;
64903;SDS011;51401;48.882;12.598;2023-07-20T12:37:57;2.50;;;1.73;;
64903;SDS011;51401;48.882;12.598;2023-07-20T12:40:23;3.30;;;1.70;;
64903;SDS011;51401;48.882;12.598;2023-07-20T12:42:48;2.00;;;1.50;;
64903;SDS011;51401;48.882;12.598;2023-07-20T12:45:14;2.47;;;1.58;;
64903;SDS011;51401;48.882;12.598;2023-07-20T12:47:39;3.53;;;1.63;;
64903;SDS011;51401;48.882;12.598;2023-07-20T12:50:06;3.78;;;1.80;;
64903;SDS011;51401;48.882;12.598;2023-07-20T12:52:32;2.20;;;1.50;;
64903;SDS011;51401;48.882;12.598;2023-07-20T12:55:01;2.22;;;1.50;;
64903;SDS011;51401;48.882;12.598;2023-07-20T12:57:26;2.22;;;1.40;;
64903;SDS011;51401;48.882;12.598;2023-07-20T12:59:51;2.20;;;1.67;;
64903;SDS011;51401;48.882;12.598;2023-07-20T13:02:17;2.27;;;1.50;;
64903;SDS011;51401;48.882;12.598;2023-07-20T13:04:42;2.60;;;1.63;;
64903;SDS011;51401;48.882;12.598;2023-07-20T13:07:09;2.40;;;1.67;;
64903;SDS011;51401;48.882;12.598;2023-07-20T13:09:36;2.67;;;1.25;;
64903;SDS011;51401;48.882;12.598;2023-07-20T13:12:01;2.30;;;1.80;;
64903;SDS011;51401;48.882;12.598;2023-07-20T13:14:26;2.28;;;1.70;;
64903;SDS011;51401;48.882;12.598;2023-07-20T13:16:51;1.95;;;1.60;;
64903;SDS011;51401;48.882;12.598;2023-07-20T13:19:17;3.58;;;1.70;;
64903;SDS011;51401;48.882;12.598;2023-07-20T13:21:42;1.75;;;1.42;;
64903;SDS011;51401;48.882;12.598;2023-07-20T13:24:08;2.95;;;1.52;;
64903;SDS011;51401;48.882;12.598;2023-07-20T13:26:33;1.95;;;1.58;;
64903;SDS011;51401;48.882;12.598;2023-07-20T13:28:59;4.75;;;1.60;;
64903;SDS011;51401;48.882;12.598;2023-07-20T13:31:24;1.47;;;1.23;;
64903;SDS011;51401;48.882;12.598;2023-07-20T13:33:49;2.03;;;1.50;;
64903;SDS011;51401;48.882;12.598;2023-07-20T13:36:15;2.53;;;1.70;;
64903;SDS011;51401;48.882;12.598;2023-07-20T13:38:40;2.27;;;1.33;;
64903;SDS011;51401;48.882;12.598;2023-07-20T13:41:05;3.20;;;1.77;;
64903;SDS011;51401;48.882;12.598;2023-07-20T13:43:31;3.53;;;1.67;;
64903;SDS011;51401;48.882;12.598;2023-07-20T13:45:56;1.50;;;1.30;;
64903;SDS011;51401;48.882;12.598;2023-07-20T13:48:21;2.73;;;1.20;;
64903;SDS011;51401;48.882;12.598;2023-07-20T13:50:48;2.28;;;1.52;;
64903;SDS011;51401;48.882;12.598;2023-07-20T13:53:13;3.92;;;1.90;;
64903;SDS011;51401;48.882;12.598;2023-07-20T13:55:40;2.38;;;1.45;;
64903;SDS011;51401;48.882;12.598;2023-07-20T13:58:05;2.65;;;1.55;;
64903;SDS011;51401;48.882;12.598;2023-07-20T14:00:30;2.10;;;1.50;;
64903;SDS011;51401;48.882;12.598;2023-07-20T14:02:58;2.95;;;1.45;;
64903;SDS011;51401;48.882;12.598;2023-07-20T14:05:24;2.95;;;1.40;;
64903;SDS011;51401;48.882;12.598;2023-07-20T14:07:49;2.70;;;1.70;;
64903;SDS011;51401;48.882;12.598;2023-07-20T14:10:15;1.83;;;1.30;;
64903;SDS011;51401;48.882;12.598;2023-07-20T14:12:40;2.22;;;1.50;;
64903;SDS011;51401;48.882;12.598;2023-07-20T14:15:05;2.13;;;1.52;;
64903;SDS011;51401;48.882;12.598;2023-07-20T14:17:31;2.88;;;1.70;;
64903;SDS011;51401;48.882;12.598;2023-07-20T14:19:56;2.67;;;1.55;;
64903;SDS011;51401;48.882;12.598;2023-07-20T14:22:22;2.90;;;1.90;;
64903;SDS011;51401;48.882;12.598;2023-07-20T14:24:48;2.92;;;1.30;;
64903;SDS011;51401;48.882;12.598;2023-07-20T14:27:13;2.50;;;1.70;;
64903;SDS011;51401;48.882;12.598;2023-07-20T14:29:39;2.85;;;1.73;;
64903;SDS011;51401;48.882;12.598;2023-07-20T14:32:04;2.37;;;1.60;;
64903;SDS011;51401;48.882;12.598;2023-07-20T14:34:32;2.08;;;1.27;;
64903;SDS011;51401;48.882;12.598;2023-07-20T14:36:58;4.50;;;1.70;;
64903;SDS011;51401;48.882;12.598;2023-07-20T14:39:24;1.88;;;1.25;;
64903;SDS011;51401;48.882;12.598;2023-07-20T14:41:50;2.58;;;1.60;;
64903;SDS011;51401;48.882;12.598;2023-07-20T14:44:16;2.88;;;1.27;;
64903;SDS011;51401;48.882;12.598;2023-07-20T14:46:41;3.00;;;1.47;;
64903;SDS011;51401;48.882;12.598;2023-07-20T14:49:07;2.42;;;1.40;;
64903;SDS011;51401;48.882;12.598;2023-07-20T14:51:32;2.67;;;1.40;;
64903;SDS011;51401;48.882;12.598;2023-07-20T14:53:58;2.08;;;1.20;;